sensor_id;sensor_type;location;lat;lon;timestamp;temperature;humidity
29363;DHT22;16349;53.672;10.014;2023-06-14T00:02:23;14.90;99.90
29363;DHT22;16349;53.672;10.014;2023-06-14T00:04:50;14.80;99.90
29363;DHT22;16349;53.672;10.014;2023-06-14T00:07:20;14.80;99.90
29363;DHT22;16349;53.672;10.014;2023-06-14T00:09:49;14.80;99.90
29363;DHT22;16349;53.672;10.014;2023-06-14T00:12:16;14.80;99.90
29363;DHT22;16349;53.672;10.014;2023-06-14T00:14:43;14.80;99.90
29363;DHT22;16349;53.672;10.014;2023-06-14T00:17:10;14.70;99.90
29363;DHT22;16349;53.672;10.014;2023-06-14T00:19:38;14.70;99.90
29363;DHT22;16349;53.672;10.014;2023-06-14T00:22:05;14.70;99.90
29363;DHT22;16349;53.672;10.014;2023-06-14T00:24:32;14.70;99.90
29363;DHT22;16349;53.672;10.014;2023-06-14T00:26:59;14.70;99.90
29363;DHT22;16349;53.672;10.014;2023-06-14T00:29:27;14.70;99.90
29363;DHT22;16349;53.672;10.014;2023-06-14T00:31:54;14.60;99.90
29363;DHT22;16349;53.672;10.014;2023-06-14T00:34:21;14.60;99.90
29363;DHT22;16349;53.672;10.014;2023-06-14T00:36:49;14.60;99.90
29363;DHT22;16349;53.672;10.014;2023-06-14T00:39:16;14.50;99.90
29363;DHT22;16349;53.672;10.014;2023-06-14T00:41:43;14.50;99.90
29363;DHT22;16349;53.672;10.014;2023-06-14T00:44:09;14.40;99.90
29363;DHT22;16349;53.672;10.014;2023-06-14T00:46:37;14.50;99.90
29363;DHT22;16349;53.672;10.014;2023-06-14T00:49:03;14.40;99.90
29363;DHT22;16349;53.672;10.014;2023-06-14T00:51:31;14.30;99.90
29363;DHT22;16349;53.672;10.014;2023-06-14T00:54:00;14.30;99.90
29363;DHT22;16349;53.672;10.014;2023-06-14T00:56:27;14.30;99.90
29363;DHT22;16349;53.672;10.014;2023-06-14T00:58:55;14.30;99.90
29363;DHT22;16349;53.672;10.014;2023-06-14T01:01:22;14.30;99.90
29363;DHT22;16349;53.672;10.014;2023-06-14T01:03:49;14.30;99.90
29363;DHT22;16349;53.672;10.014;2023-06-14T01:06:24;14.30;99.90
29363;DHT22;16349;53.672;10.014;2023-06-14T01:09:06;14.30;99.90
29363;DHT22;16349;53.672;10.014;2023-06-14T01:11:39;14.30;99.90
29363;DHT22;16349;53.672;10.014;2023-06-14T01:14:07;14.30;99.90
29363;DHT22;16349;53.672;10.014;2023-06-14T01:16:36;14.30;99.90
29363;DHT22;16349;53.672;10.014;2023-06-14T01:19:05;14.20;99.90
29363;DHT22;16349;53.672;10.014;2023-06-14T01:21:35;14.30;99.90
29363;DHT22;16349;53.672;10.014;2023-06-14T01:24:08;14.20;99.90
29363;DHT22;16349;53.672;10.014;2023-06-14T01:26:36;14.10;99.90
29363;DHT22;16349;53.672;10.014;2023-06-14T01:29:04;14.00;99.90
29363;DHT22;16349;53.672;10.014;2023-06-14T01:31:32;14.10;99.90
29363;DHT22;16349;53.672;10.014;2023-06-14T01:34:07;14.00;99.90
29363;DHT22;16349;53.672;10.014;2023-06-14T01:36:35;14.00;99.90
29363;DHT22;16349;53.672;10.014;2023-06-14T01:39:04;14.00;99.90
29363;DHT22;16349;53.672;10.014;2023-06-14T01:41:34;13.90;99.90
29363;DHT22;16349;53.672;10.014;2023-06-14T01:44:02;13.90;99.90
29363;DHT22;16349;53.672;10.014;2023-06-14T01:46:32;13.90;99.90
29363;DHT22;16349;53.672;10.014;2023-06-14T01:48:59;13.90;99.90
29363;DHT22;16349;53.672;10.014;2023-06-14T01:51:26;13.90;99.90
29363;DHT22;16349;53.672;10.014;2023-06-14T01:53:53;13.80;99.90
29363;DHT22;16349;53.672;10.014;2023-06-14T01:56:20;13.80;99.90
29363;DHT22;16349;53.672;10.014;2023-06-14T01:58:49;13.80;99.90
29363;DHT22;16349;53.672;10.014;2023-06-14T02:01:18;13.90;99.90
29363;DHT22;16349;53.672;10.014;2023-06-14T02:03:46;13.90;99.90
29363;DHT22;16349;53.672;10.014;2023-06-14T02:06:15;13.90;99.90
29363;DHT22;16349;53.672;10.014;2023-06-14T02:08:42;13.90;99.90
29363;DHT22;16349;53.672;10.014;2023-06-14T02:11:09;13.90;99.90
29363;DHT22;16349;53.672;10.014;2023-06-14T02:13:36;13.90;99.90
29363;DHT22;16349;53.672;10.014;2023-06-14T02:16:04;13.80;99.90
29363;DHT22;16349;53.672;10.014;2023-06-14T02:18:31;13.80;99.90
29363;DHT22;16349;53.672;10.014;2023-06-14T02:20:57;13.90;99.90
29363;DHT22;16349;53.672;10.014;2023-06-14T02:23:24;13.80;99.90
29363;DHT22;16349;53.672;10.014;2023-06-14T02:25:51;13.80;99.90
29363;DHT22;16349;53.672;10.014;2023-06-14T02:28:18;13.70;99.90
29363;DHT22;16349;53.672;10.014;2023-06-14T02:30:46;13.70;99.90
29363;DHT22;16349;53.672;10.014;2023-06-14T02:33:14;13.60;99.90
29363;DHT22;16349;53.672;10.014;2023-06-14T02:35:43;13.70;99.90
29363;DHT22;16349;53.672;10.014;2023-06-14T02:38:10;13.70;99.90
29363;DHT22;16349;53.672;10.014;2023-06-14T02:40:37;13.70;99.90
29363;DHT22;16349;53.672;10.014;2023-06-14T02:43:04;13.70;99.90
29363;DHT22;16349;53.672;10.014;2023-06-14T02:45:31;13.60;99.90
29363;DHT22;16349;53.672;10.014;2023-06-14T02:47:58;13.70;99.90
29363;DHT22;16349;53.672;10.014;2023-06-14T02:50:26;13.60;99.90
29363;DHT22;16349;53.672;10.014;2023-06-14T02:52:55;13.60;99.90
29363;DHT22;16349;53.672;10.014;2023-06-14T02:55:22;13.60;99.90
29363;DHT22;16349;53.672;10.014;2023-06-14T02:57:49;13.60;99.90
29363;DHT22;16349;53.672;10.014;2023-06-14T03:00:17;13.60;99.90
29363;DHT22;16349;53.672;10.014;2023-06-14T03:02:46;13.60;99.90
29363;DHT22;16349;53.672;10.014;2023-06-14T03:05:13;13.60;99.90
29363;DHT22;16349;53.672;10.014;2023-06-14T03:07:42;13.50;99.90
29363;DHT22;16349;53.672;10.014;2023-06-14T03:10:11;13.50;99.90
29363;DHT22;16349;53.672;10.014;2023-06-14T03:12:40;13.50;99.90
29363;DHT22;16349;53.672;10.014;2023-06-14T03:15:09;13.40;99.90
29363;DHT22;16349;53.672;10.014;2023-06-14T03:17:39;13.40;99.90
29363;DHT22;16349;53.672;10.014;2023-06-14T03:20:11;13.30;99.90
29363;DHT22;16349;53.672;10.014;2023-06-14T03:22:37;13.40;99.90
29363;DHT22;16349;53.672;10.014;2023-06-14T03:25:08;13.40;99.90
29363;DHT22;16349;53.672;10.014;2023-06-14T03:27:37;13.40;99.90
29363;DHT22;16349;53.672;10.014;2023-06-14T03:30:06;13.30;99.90
29363;DHT22;16349;53.672;10.014;2023-06-14T03:32:33;13.40;99.90
29363;DHT22;16349;53.672;10.014;2023-06-14T03:35:00;13.40;99.90
29363;DHT22;16349;53.672;10.014;2023-06-14T03:37:27;13.40;99.90
29363;DHT22;16349;53.672;10.014;2023-06-14T03:39:55;13.40;99.90
29363;DHT22;16349;53.672;10.014;2023-06-14T03:42:25;13.40;99.90
29363;DHT22;16349;53.672;10.014;2023-06-14T03:44:53;13.50;99.90
29363;DHT22;16349;53.672;10.014;2023-06-14T03:47:22;13.50;99.90
29363;DHT22;16349;53.672;10.014;2023-06-14T03:49:48;13.50;99.90
29363;DHT22;16349;53.672;10.014;2023-06-14T03:52:15;13.50;99.90
29363;DHT22;16349;53.672;10.014;2023-06-14T03:54:44;13.50;99.90
29363;DHT22;16349;53.672;10.014;2023-06-14T03:57:12;13.50;99.90
29363;DHT22;16349;53.672;10.014;2023-06-14T03:59:42;13.60;99.90
29363;DHT22;16349;53.672;10.014;2023-06-14T04:02:09;13.60;99.90
29363;DHT22;16349;53.672;10.014;2023-06-14T04:04:36;13.60;99.90
29363;DHT22;16349;53.672;10.014;2023-06-14T04:07:04;13.60;99.90
29363;DHT22;16349;53.672;10.014;2023-06-14T04:09:31;13.60;99.90
29363;DHT22;16349;53.672;10.014;2023-06-14T04:11:58;13.60;99.90
29363;DHT22;16349;53.672;10.014;2023-06-14T04:14:25;13.70;99.90
29363;DHT22;16349;53.672;10.014;2023-06-14T04:16:53;13.70;99.90
29363;DHT22;16349;53.672;10.014;2023-06-14T04:19:21;13.70;99.90
29363;DHT22;16349;53.672;10.014;2023-06-14T04:21:48;13.70;99.90
29363;DHT22;16349;53.672;10.014;2023-06-14T04:24:16;13.70;99.90
29363;DHT22;16349;53.672;10.014;2023-06-14T04:26:46;13.70;99.90
29363;DHT22;16349;53.672;10.014;2023-06-14T04:29:16;13.80;99.90
29363;DHT22;16349;53.672;10.014;2023-06-14T04:31:50;13.80;99.90
29363;DHT22;16349;53.672;10.014;2023-06-14T04:34:18;13.80;99.90
29363;DHT22;16349;53.672;10.014;2023-06-14T04:36:52;13.80;99.90
29363;DHT22;16349;53.672;10.014;2023-06-14T04:39:25;13.80;99.90
29363;DHT22;16349;53.672;10.014;2023-06-14T04:41:53;13.90;99.90
29363;DHT22;16349;53.672;10.014;2023-06-14T04:44:23;13.90;99.90
29363;DHT22;16349;53.672;10.014;2023-06-14T04:46:56;14.00;99.90
29363;DHT22;16349;53.672;10.014;2023-06-14T04:49:25;14.00;99.90
29363;DHT22;16349;53.672;10.014;2023-06-14T04:51:53;14.00;99.90
29363;DHT22;16349;53.672;10.014;2023-06-14T04:54:23;14.00;99.90
29363;DHT22;16349;53.672;10.014;2023-06-14T04:56:52;14.10;99.90
29363;DHT22;16349;53.672;10.014;2023-06-14T04:59:23;14.20;99.90
29363;DHT22;16349;53.672;10.014;2023-06-14T05:01:51;14.20;99.90
29363;DHT22;16349;53.672;10.014;2023-06-14T05:04:19;14.30;99.90
29363;DHT22;16349;53.672;10.014;2023-06-14T05:06:48;14.30;99.90
29363;DHT22;16349;53.672;10.014;2023-06-14T05:09:15;14.40;99.90
29363;DHT22;16349;53.672;10.014;2023-06-14T05:11:43;14.40;99.90
29363;DHT22;16349;53.672;10.014;2023-06-14T05:14:11;14.50;99.90
29363;DHT22;16349;53.672;10.014;2023-06-14T05:16:39;14.50;99.90
29363;DHT22;16349;53.672;10.014;2023-06-14T05:19:06;14.60;99.90
29363;DHT22;16349;53.672;10.014;2023-06-14T05:21:33;14.70;99.90
29363;DHT22;16349;53.672;10.014;2023-06-14T05:24:01;14.70;99.90
29363;DHT22;16349;53.672;10.014;2023-06-14T05:26:28;14.80;99.90
29363;DHT22;16349;53.672;10.014;2023-06-14T05:28:55;14.90;99.90
29363;DHT22;16349;53.672;10.014;2023-06-14T05:31:23;14.90;99.90
29363;DHT22;16349;53.672;10.014;2023-06-14T05:33:51;14.90;99.90
29363;DHT22;16349;53.672;10.014;2023-06-14T05:36:19;15.00;99.90
29363;DHT22;16349;53.672;10.014;2023-06-14T05:38:46;15.10;99.90
29363;DHT22;16349;53.672;10.014;2023-06-14T05:41:14;15.10;99.90
29363;DHT22;16349;53.672;10.014;2023-06-14T05:43:41;15.20;99.90
29363;DHT22;16349;53.672;10.014;2023-06-14T05:46:08;15.20;99.90
29363;DHT22;16349;53.672;10.014;2023-06-14T05:48:35;15.30;99.90
29363;DHT22;16349;53.672;10.014;2023-06-14T05:51:02;15.30;99.90
29363;DHT22;16349;53.672;10.014;2023-06-14T05:53:29;15.40;99.90
29363;DHT22;16349;53.672;10.014;2023-06-14T05:55:56;15.50;99.90
29363;DHT22;16349;53.672;10.014;2023-06-14T05:58:24;15.60;99.90
29363;DHT22;16349;53.672;10.014;2023-06-14T06:00:51;15.60;99.90
29363;DHT22;16349;53.672;10.014;2023-06-14T06:03:19;15.80;99.90
29363;DHT22;16349;53.672;10.014;2023-06-14T06:05:46;15.80;99.90
29363;DHT22;16349;53.672;10.014;2023-06-14T06:08:13;15.90;99.90
29363;DHT22;16349;53.672;10.014;2023-06-14T06:10:42;16.00;99.90
29363;DHT22;16349;53.672;10.014;2023-06-14T06:13:09;16.10;99.90
29363;DHT22;16349;53.672;10.014;2023-06-14T06:15:37;16.20;99.90
29363;DHT22;16349;53.672;10.014;2023-06-14T06:18:04;16.20;99.90
29363;DHT22;16349;53.672;10.014;2023-06-14T06:20:32;16.30;99.90
29363;DHT22;16349;53.672;10.014;2023-06-14T06:22:59;16.40;99.90
29363;DHT22;16349;53.672;10.014;2023-06-14T06:25:26;16.50;99.90
29363;DHT22;16349;53.672;10.014;2023-06-14T06:27:54;16.60;99.90
29363;DHT22;16349;53.672;10.014;2023-06-14T06:30:21;16.70;99.90
29363;DHT22;16349;53.672;10.014;2023-06-14T06:32:50;16.80;99.90
29363;DHT22;16349;53.672;10.014;2023-06-14T06:35:17;16.90;99.90
29363;DHT22;16349;53.672;10.014;2023-06-14T06:37:44;17.00;99.90
29363;DHT22;16349;53.672;10.014;2023-06-14T06:40:11;17.00;99.90
29363;DHT22;16349;53.672;10.014;2023-06-14T06:42:38;17.10;99.90
29363;DHT22;16349;53.672;10.014;2023-06-14T06:45:06;17.20;99.90
29363;DHT22;16349;53.672;10.014;2023-06-14T06:47:33;17.30;99.90
29363;DHT22;16349;53.672;10.014;2023-06-14T06:50:01;17.40;99.90
29363;DHT22;16349;53.672;10.014;2023-06-14T06:52:28;17.50;99.90
29363;DHT22;16349;53.672;10.014;2023-06-14T06:54:54;17.50;99.90
29363;DHT22;16349;53.672;10.014;2023-06-14T06:57:22;17.60;99.90
29363;DHT22;16349;53.672;10.014;2023-06-14T06:59:49;17.70;99.90
29363;DHT22;16349;53.672;10.014;2023-06-14T07:02:16;17.80;99.90
29363;DHT22;16349;53.672;10.014;2023-06-14T07:04:43;17.90;99.90
29363;DHT22;16349;53.672;10.014;2023-06-14T07:07:12;17.90;99.90
29363;DHT22;16349;53.672;10.014;2023-06-14T07:09:38;18.00;99.90
29363;DHT22;16349;53.672;10.014;2023-06-14T07:12:07;18.00;99.90
29363;DHT22;16349;53.672;10.014;2023-06-14T07:14:34;18.10;99.90
29363;DHT22;16349;53.672;10.014;2023-06-14T07:17:01;18.10;99.90
29363;DHT22;16349;53.672;10.014;2023-06-14T07:19:28;18.20;99.90
29363;DHT22;16349;53.672;10.014;2023-06-14T07:21:56;18.30;99.90
29363;DHT22;16349;53.672;10.014;2023-06-14T07:24:25;18.40;99.90
29363;DHT22;16349;53.672;10.014;2023-06-14T07:26:54;18.50;99.90
29363;DHT22;16349;53.672;10.014;2023-06-14T07:29:21;18.60;99.90
29363;DHT22;16349;53.672;10.014;2023-06-14T07:31:49;18.70;99.90
29363;DHT22;16349;53.672;10.014;2023-06-14T07:34:16;18.80;99.90
29363;DHT22;16349;53.672;10.014;2023-06-14T07:36:42;18.90;99.90
29363;DHT22;16349;53.672;10.014;2023-06-14T07:39:10;19.00;99.90
29363;DHT22;16349;53.672;10.014;2023-06-14T07:41:38;19.00;99.90
29363;DHT22;16349;53.672;10.014;2023-06-14T07:44:05;19.10;99.90
29363;DHT22;16349;53.672;10.014;2023-06-14T07:46:32;19.20;99.90
29363;DHT22;16349;53.672;10.014;2023-06-14T07:49:00;19.30;99.90
29363;DHT22;16349;53.672;10.014;2023-06-14T07:51:27;19.50;99.90
29363;DHT22;16349;53.672;10.014;2023-06-14T07:53:54;19.50;99.90
29363;DHT22;16349;53.672;10.014;2023-06-14T07:56:20;19.70;99.90
29363;DHT22;16349;53.672;10.014;2023-06-14T07:58:50;19.80;99.90
29363;DHT22;16349;53.672;10.014;2023-06-14T08:01:16;19.90;99.90
29363;DHT22;16349;53.672;10.014;2023-06-14T08:03:45;19.90;99.90
29363;DHT22;16349;53.672;10.014;2023-06-14T08:06:12;20.10;99.90
29363;DHT22;16349;53.672;10.014;2023-06-14T08:08:39;20.20;99.90
29363;DHT22;16349;53.672;10.014;2023-06-14T08:11:06;20.20;99.90
29363;DHT22;16349;53.672;10.014;2023-06-14T08:13:33;20.30;99.90
29363;DHT22;16349;53.672;10.014;2023-06-14T08:16:01;20.40;99.90
29363;DHT22;16349;53.672;10.014;2023-06-14T08:18:30;20.40;99.90
29363;DHT22;16349;53.672;10.014;2023-06-14T08:20:57;20.50;99.40
29363;DHT22;16349;53.672;10.014;2023-06-14T08:23:24;20.60;98.60
29363;DHT22;16349;53.672;10.014;2023-06-14T08:25:51;20.70;98.50
29363;DHT22;16349;53.672;10.014;2023-06-14T08:28:18;20.70;98.10
29363;DHT22;16349;53.672;10.014;2023-06-14T08:30:45;20.70;98.10
29363;DHT22;16349;53.672;10.014;2023-06-14T08:33:13;20.80;97.50
29363;DHT22;16349;53.672;10.014;2023-06-14T08:35:40;20.90;96.70
29363;DHT22;16349;53.672;10.014;2023-06-14T08:38:06;20.90;96.50
29363;DHT22;16349;53.672;10.014;2023-06-14T08:40:36;21.00;96.20
29363;DHT22;16349;53.672;10.014;2023-06-14T08:43:03;21.10;95.80
29363;DHT22;16349;53.672;10.014;2023-06-14T08:45:31;21.20;95.70
29363;DHT22;16349;53.672;10.014;2023-06-14T08:47:58;21.30;95.30
29363;DHT22;16349;53.672;10.014;2023-06-14T08:50:27;21.30;94.80
29363;DHT22;16349;53.672;10.014;2023-06-14T08:52:57;21.40;95.00
29363;DHT22;16349;53.672;10.014;2023-06-14T08:55:27;21.50;94.80
29363;DHT22;16349;53.672;10.014;2023-06-14T08:57:55;21.50;94.20
29363;DHT22;16349;53.672;10.014;2023-06-14T09:00:23;21.50;94.80
29363;DHT22;16349;53.672;10.014;2023-06-14T09:02:50;21.50;95.00
29363;DHT22;16349;53.672;10.014;2023-06-14T09:05:22;21.60;94.10
29363;DHT22;16349;53.672;10.014;2023-06-14T09:07:50;21.70;93.60
29363;DHT22;16349;53.672;10.014;2023-06-14T09:10:18;21.70;93.30
29363;DHT22;16349;53.672;10.014;2023-06-14T09:12:47;21.80;93.20
29363;DHT22;16349;53.672;10.014;2023-06-14T09:15:14;21.90;92.70
29363;DHT22;16349;53.672;10.014;2023-06-14T09:17:41;22.00;92.50
29363;DHT22;16349;53.672;10.014;2023-06-14T09:20:09;22.10;92.30
29363;DHT22;16349;53.672;10.014;2023-06-14T09:22:36;22.20;91.40
29363;DHT22;16349;53.672;10.014;2023-06-14T09:25:05;22.20;91.20
29363;DHT22;16349;53.672;10.014;2023-06-14T09:27:33;22.20;91.30
29363;DHT22;16349;53.672;10.014;2023-06-14T09:30:02;22.30;91.00
29363;DHT22;16349;53.672;10.014;2023-06-14T09:32:29;22.30;90.50
29363;DHT22;16349;53.672;10.014;2023-06-14T09:34:57;22.40;90.60
29363;DHT22;16349;53.672;10.014;2023-06-14T09:37:31;22.50;90.00
29363;DHT22;16349;53.672;10.014;2023-06-14T09:39:58;22.50;89.70
29363;DHT22;16349;53.672;10.014;2023-06-14T09:42:27;22.60;89.50
29363;DHT22;16349;53.672;10.014;2023-06-14T09:44:56;22.60;88.60
29363;DHT22;16349;53.672;10.014;2023-06-14T09:47:24;22.60;89.60
29363;DHT22;16349;53.672;10.014;2023-06-14T09:49:51;22.80;89.00
29363;DHT22;16349;53.672;10.014;2023-06-14T09:52:21;22.90;87.70
29363;DHT22;16349;53.672;10.014;2023-06-14T09:54:49;22.90;86.70
29363;DHT22;16349;53.672;10.014;2023-06-14T09:57:20;22.80;87.10
29363;DHT22;16349;53.672;10.014;2023-06-14T09:59:53;22.90;85.80
29363;DHT22;16349;53.672;10.014;2023-06-14T10:02:26;23.00;84.40
29363;DHT22;16349;53.672;10.014;2023-06-14T10:04:57;22.90;83.30
29363;DHT22;16349;53.672;10.014;2023-06-14T10:07:27;22.90;82.60
29363;DHT22;16349;53.672;10.014;2023-06-14T10:09:57;22.80;83.60
29363;DHT22;16349;53.672;10.014;2023-06-14T10:12:24;23.10;83.50
29363;DHT22;16349;53.672;10.014;2023-06-14T10:14:53;23.10;82.00
29363;DHT22;16349;53.672;10.014;2023-06-14T10:17:27;23.20;81.80
29363;DHT22;16349;53.672;10.014;2023-06-14T10:20:06;23.20;81.80
29363;DHT22;16349;53.672;10.014;2023-06-14T10:22:41;23.40;79.40
29363;DHT22;16349;53.672;10.014;2023-06-14T10:25:13;23.40;79.30
29363;DHT22;16349;53.672;10.014;2023-06-14T10:27:44;23.40;79.60
29363;DHT22;16349;53.672;10.014;2023-06-14T10:30:15;23.30;79.40
29363;DHT22;16349;53.672;10.014;2023-06-14T10:33:03;23.30;79.10
29363;DHT22;16349;53.672;10.014;2023-06-14T10:35:30;23.40;78.90
29363;DHT22;16349;53.672;10.014;2023-06-14T10:38:06;23.50;78.20
29363;DHT22;16349;53.672;10.014;2023-06-14T10:40:34;23.60;77.60
29363;DHT22;16349;53.672;10.014;2023-06-14T10:43:01;23.70;77.30
29363;DHT22;16349;53.672;10.014;2023-06-14T10:46:15;23.60;77.80
29363;DHT22;16349;53.672;10.014;2023-06-14T10:48:43;23.80;78.70
29363;DHT22;16349;53.672;10.014;2023-06-14T10:51:16;23.80;77.90
29363;DHT22;16349;53.672;10.014;2023-06-14T10:53:46;23.70;77.80
29363;DHT22;16349;53.672;10.014;2023-06-14T10:56:26;23.40;78.70
29363;DHT22;16349;53.672;10.014;2023-06-14T10:58:53;23.30;79.40
29363;DHT22;16349;53.672;10.014;2023-06-14T11:01:35;23.20;79.60
29363;DHT22;16349;53.672;10.014;2023-06-14T11:04:10;23.40;78.40
29363;DHT22;16349;53.672;10.014;2023-06-14T11:06:47;23.60;79.10
29363;DHT22;16349;53.672;10.014;2023-06-14T11:09:39;23.80;76.10
29363;DHT22;16349;53.672;10.014;2023-06-14T11:12:10;23.70;77.50
29363;DHT22;16349;53.672;10.014;2023-06-14T11:14:38;23.60;78.60
29363;DHT22;16349;53.672;10.014;2023-06-14T11:17:07;23.50;79.10
29363;DHT22;16349;53.672;10.014;2023-06-14T11:19:33;23.50;78.90
29363;DHT22;16349;53.672;10.014;2023-06-14T11:22:01;23.60;78.70
29363;DHT22;16349;53.672;10.014;2023-06-14T11:24:28;23.80;77.90
29363;DHT22;16349;53.672;10.014;2023-06-14T11:26:55;24.20;76.40
29363;DHT22;16349;53.672;10.014;2023-06-14T11:29:23;24.20;76.50
29363;DHT22;16349;53.672;10.014;2023-06-14T11:31:51;24.40;76.30
29363;DHT22;16349;53.672;10.014;2023-06-14T11:34:19;24.40;75.40
29363;DHT22;16349;53.672;10.014;2023-06-14T11:36:46;24.30;74.80
29363;DHT22;16349;53.672;10.014;2023-06-14T11:41:43;24.40;73.30
29363;DHT22;16349;53.672;10.014;2023-06-14T11:44:10;24.40;73.60
29363;DHT22;16349;53.672;10.014;2023-06-14T11:46:37;24.50;73.70
29363;DHT22;16349;53.672;10.014;2023-06-14T11:49:04;24.70;72.90
29363;DHT22;16349;53.672;10.014;2023-06-14T11:51:36;24.90;71.80
29363;DHT22;16349;53.672;10.014;2023-06-14T11:54:05;25.00;70.30
29363;DHT22;16349;53.672;10.014;2023-06-14T11:56:32;25.10;69.70
29363;DHT22;16349;53.672;10.014;2023-06-14T11:58:59;25.00;69.60
29363;DHT22;16349;53.672;10.014;2023-06-14T12:01:26;24.90;69.10
29363;DHT22;16349;53.672;10.014;2023-06-14T12:03:54;24.80;69.60
29363;DHT22;16349;53.672;10.014;2023-06-14T12:06:28;24.90;69.20
29363;DHT22;16349;53.672;10.014;2023-06-14T12:09:00;25.00;69.10
29363;DHT22;16349;53.672;10.014;2023-06-14T12:11:33;25.30;69.30
29363;DHT22;16349;53.672;10.014;2023-06-14T12:14:00;25.20;69.00
29363;DHT22;16349;53.672;10.014;2023-06-14T12:16:31;25.40;68.60
29363;DHT22;16349;53.672;10.014;2023-06-14T12:19:00;25.40;67.40
29363;DHT22;16349;53.672;10.014;2023-06-14T12:21:27;25.20;67.80
29363;DHT22;16349;53.672;10.014;2023-06-14T12:23:54;25.00;68.30
29363;DHT22;16349;53.672;10.014;2023-06-14T12:26:24;24.90;68.70
29363;DHT22;16349;53.672;10.014;2023-06-14T12:28:52;25.00;68.80
29363;DHT22;16349;53.672;10.014;2023-06-14T12:31:19;25.20;68.80
29363;DHT22;16349;53.672;10.014;2023-06-14T12:33:47;25.40;67.80
29363;DHT22;16349;53.672;10.014;2023-06-14T12:36:15;25.30;67.00
29363;DHT22;16349;53.672;10.014;2023-06-14T12:38:42;25.30;67.50
29363;DHT22;16349;53.672;10.014;2023-06-14T12:41:09;25.40;66.90
29363;DHT22;16349;53.672;10.014;2023-06-14T12:43:37;25.40;66.50
29363;DHT22;16349;53.672;10.014;2023-06-14T12:46:04;25.70;66.60
29363;DHT22;16349;53.672;10.014;2023-06-14T12:48:31;26.00;66.20
29363;DHT22;16349;53.672;10.014;2023-06-14T12:50:59;26.30;65.40
29363;DHT22;16349;53.672;10.014;2023-06-14T12:53:26;26.20;65.00
29363;DHT22;16349;53.672;10.014;2023-06-14T12:55:53;26.30;64.80
29363;DHT22;16349;53.672;10.014;2023-06-14T13:08:12;27.30;60.50
29363;DHT22;16349;53.672;10.014;2023-06-14T13:10:39;27.40;60.80
29363;DHT22;16349;53.672;10.014;2023-06-14T13:13:06;27.40;61.10
29363;DHT22;16349;53.672;10.014;2023-06-14T13:15:33;26.90;61.00
29363;DHT22;16349;53.672;10.014;2023-06-14T13:18:02;26.80;61.30
29363;DHT22;16349;53.672;10.014;2023-06-14T13:20:29;26.90;60.70
29363;DHT22;16349;53.672;10.014;2023-06-14T13:22:56;27.00;59.60
29363;DHT22;16349;53.672;10.014;2023-06-14T13:25:23;26.90;60.20
29363;DHT22;16349;53.672;10.014;2023-06-14T13:27:49;26.30;60.40
29363;DHT22;16349;53.672;10.014;2023-06-14T13:30:16;26.20;61.30
29363;DHT22;16349;53.672;10.014;2023-06-14T13:32:43;26.50;60.30
29363;DHT22;16349;53.672;10.014;2023-06-14T13:35:11;27.20;59.00
29363;DHT22;16349;53.672;10.014;2023-06-14T13:37:38;28.00;58.20
29363;DHT22;16349;53.672;10.014;2023-06-14T13:40:06;28.60;56.20
29363;DHT22;16349;53.672;10.014;2023-06-14T13:47:29;29.30;52.40
29363;DHT22;16349;53.672;10.014;2023-06-14T13:49:56;29.60;52.70
29363;DHT22;16349;53.672;10.014;2023-06-14T13:52:25;29.90;51.60
29363;DHT22;16349;53.672;10.014;2023-06-14T13:54:52;30.00;51.00
29363;DHT22;16349;53.672;10.014;2023-06-14T13:57:19;30.10;50.40
29363;DHT22;16349;53.672;10.014;2023-06-14T13:59:47;30.30;74.30
29363;DHT22;16349;53.672;10.014;2023-06-14T14:02:15;30.40;72.50
29363;DHT22;16349;53.672;10.014;2023-06-14T14:04:42;30.80;48.20
29363;DHT22;16349;53.672;10.014;2023-06-14T14:07:10;30.80;47.90
29363;DHT22;16349;53.672;10.014;2023-06-14T14:09:38;31.00;47.30
29363;DHT22;16349;53.672;10.014;2023-06-14T14:12:07;30.70;46.70
29363;DHT22;16349;53.672;10.014;2023-06-14T14:14:34;30.60;46.40
29363;DHT22;16349;53.672;10.014;2023-06-14T14:17:01;30.40;47.50
29363;DHT22;16349;53.672;10.014;2023-06-14T14:19:28;30.90;46.40
29363;DHT22;16349;53.672;10.014;2023-06-14T14:21:55;30.90;46.20
29363;DHT22;16349;53.672;10.014;2023-06-14T14:24:22;31.20;45.70
29363;DHT22;16349;53.672;10.014;2023-06-14T14:26:51;31.00;45.10
29363;DHT22;16349;53.672;10.014;2023-06-14T14:29:19;31.10;45.60
29363;DHT22;16349;53.672;10.014;2023-06-14T14:31:46;30.70;45.10
29363;DHT22;16349;53.672;10.014;2023-06-14T14:34:14;30.80;45.40
29363;DHT22;16349;53.672;10.014;2023-06-14T14:36:41;31.00;45.30
29363;DHT22;16349;53.672;10.014;2023-06-14T14:39:08;31.80;44.20
29363;DHT22;16349;53.672;10.014;2023-06-14T14:41:35;32.10;43.20
29363;DHT22;16349;53.672;10.014;2023-06-14T14:44:05;31.90;42.90
29363;DHT22;16349;53.672;10.014;2023-06-14T14:46:32;32.00;43.20
29363;DHT22;16349;53.672;10.014;2023-06-14T14:48:59;31.90;42.40
29363;DHT22;16349;53.672;10.014;2023-06-14T14:51:26;31.60;42.70
29363;DHT22;16349;53.672;10.014;2023-06-14T14:53:53;31.80;42.80
29363;DHT22;16349;53.672;10.014;2023-06-14T14:56:22;31.80;42.60
29363;DHT22;16349;53.672;10.014;2023-06-14T14:58:49;31.70;42.50
29363;DHT22;16349;53.672;10.014;2023-06-14T15:01:18;32.00;42.30
29363;DHT22;16349;53.672;10.014;2023-06-14T15:03:45;31.90;41.90
29363;DHT22;16349;53.672;10.014;2023-06-14T15:06:11;31.90;42.10
29363;DHT22;16349;53.672;10.014;2023-06-14T15:08:39;32.00;42.10
29363;DHT22;16349;53.672;10.014;2023-06-14T15:11:06;32.30;41.80
29363;DHT22;16349;53.672;10.014;2023-06-14T15:13:33;32.50;40.60
29363;DHT22;16349;53.672;10.014;2023-06-14T15:16:00;32.40;40.70
29363;DHT22;16349;53.672;10.014;2023-06-14T15:18:28;32.60;40.50
29363;DHT22;16349;53.672;10.014;2023-06-14T15:20:55;32.30;41.00
29363;DHT22;16349;53.672;10.014;2023-06-14T15:23:22;32.20;40.40
29363;DHT22;16349;53.672;10.014;2023-06-14T15:25:49;32.10;40.80
29363;DHT22;16349;53.672;10.014;2023-06-14T15:28:17;31.80;40.70
29363;DHT22;16349;53.672;10.014;2023-06-14T15:30:45;31.60;40.70
29363;DHT22;16349;53.672;10.014;2023-06-14T15:33:12;31.70;40.60
29363;DHT22;16349;53.672;10.014;2023-06-14T15:35:41;31.80;40.50
29363;DHT22;16349;53.672;10.014;2023-06-14T15:38:08;32.10;40.10
29363;DHT22;16349;53.672;10.014;2023-06-14T15:40:35;32.40;39.80